Time;durP1;ratioP1;P1;durP2;ratioP2;P2;SDS_P1;SDS_P2;PMS_P1;PMS_P2;Temp;Humidity;BMP_temperature;BMP_pressure;BME280_temperature;BME280_humidity;BME280_pressure;Samples;Min_cycle;Max_cycle;Signal;HPM_P1;HPM_P2
2023/12/22 00:04:38;;;;;;;6.30;2.85;;;;;;;14.71;100.00;100371.63;10605032;27;20058;-77
2023/12/22 00:10:00;;;;;;;4.07;2.30;;;;;;;14.44;100.00;100379.81;10551699;28;20570;-77
2023/12/22 00:15:23;;;;;;;6.13;2.42;;;;;;;14.37;100.00;100381.59;10564033;28;20044;-77
2023/12/22 00:20:46;;;;;;;3.47;2.17;;;;;;;14.36;100.00;100375.38;10563604;28;20089;-77
2023/12/22 00:26:09;;;;;;;6.88;3.17;;;;;;;14.51;100.00;100385.03;10593030;27;20381;-79
2023/12/22 00:31:31;;;;;;;7.25;3.22;;;;;;;14.21;100.00;100359.53;10604933;27;20374;-77
2023/12/22 00:36:55;;;;;;;3.95;2.83;;;;;;;14.05;100.00;100362.25;10591223;27;20063;-78
2023/12/22 00:42:17;;;;;;;7.65;4.13;;;;;;;14.33;100.00;100369.19;10604430;27;20054;-77
2023/12/22 00:47:40;;;;;;;21.25;10.10;;;;;;;14.18;100.00;100366.63;10605312;27;20592;-78
2023/12/22 00:53:04;;;;;;;9.00;6.03;;;;;;;13.98;100.00;100381.78;10603888;27;20065;-78
2023/12/22 00:58:27;;;;;;;7.63;4.15;;;;;;;13.94;100.00;100384.44;10597983;27;20071;-78
2023/12/22 01:03:49;;;;;;;5.35;3.50;;;;;;;14.08;100.00;100387.03;10605344;27;20043;-78
2023/12/22 01:09:14;;;;;;;6.72;4.15;;;;;;;14.06;100.00;100378.19;10590794;27;20108;-79
2023/12/22 01:14:37;;;;;;;5.78;2.97;;;;;;;13.93;100.00;100381.78;10604011;27;20431;-79
2023/12/22 01:19:59;;;;;;;7.22;5.35;;;;;;;13.77;100.00;100365.06;10589886;27;20043;-77
2023/12/22 01:25:23;;;;;;;8.88;4.20;;;;;;;13.79;100.00;100360.63;10599162;27;20508;-78
2023/12/22 01:30:45;;;;;;;7.00;3.20;;;;;;;13.90;100.00;100355.28;10603403;27;20108;-78
2023/12/22 01:36:08;;;;;;;7.25;2.70;;;;;;;13.86;100.00;100341.13;10591337;27;20092;-77
2023/12/22 01:41:32;;;;;;;4.72;2.30;;;;;;;13.77;100.00;100350.91;10603260;27;20047;-77
2023/12/22 01:46:54;;;;;;;28.67;17.80;;;;;;;13.66;100.00;100336.78;10602717;27;20443;-77
2023/12/22 01:52:19;;;;;;;9.15;5.40;;;;;;;13.57;100.00;100343.94;10573802;28;20054;-77
2023/12/22 01:57:43;;;;;;;2.95;2.60;;;;;;;13.58;100.00;100334.19;10573334;27;20039;-77
2023/12/22 02:03:06;;;;;;;3.20;1.90;;;;;;;13.55;100.00;100328.88;10601838;27;20051;-77
2023/12/22 02:08:32;;;;;;;2.38;1.98;;;;;;;13.53;100.00;100326.25;10602152;27;20051;-77
2023/12/22 02:13:56;;;;;;;6.43;2.25;;;;;;;13.40;100.00;100324.50;10601389;27;20047;-77
2023/12/22 02:19:28;;;;;;;6.82;4.30;;;;;;;13.36;100.00;100312.16;10601651;28;20050;-78
2023/12/22 02:24:52;;;;;;;5.38;3.70;;;;;;;13.24;100.00;100309.56;10594073;28;20108;-77
2023/12/22 02:30:20;;;;;;;8.40;5.03;;;;;;;13.21;100.00;100301.59;10601913;28;20039;-77
2023/12/22 02:35:45;;;;;;;8.73;4.80;;;;;;;13.06;100.00;100296.31;10587788;28;20051;-77
2023/12/22 02:41:09;;;;;;;8.07;5.90;;;;;;;12.90;100.00;100289.28;10601204;28;20059;-76
2023/12/22 02:46:31;;;;;;;3.88;2.60;;;;;;;12.64;100.00;100286.66;10558654;28;20040;-76
2023/12/22 02:51:54;;;;;;;4.43;2.10;;;;;;;12.61;100.00;100300.75;10585900;28;20051;-77
2023/12/22 02:57:18;;;;;;;9.15;4.85;;;;;;;12.68;100.00;100291.94;10587927;28;20611;-78
2023/12/22 03:02:40;;;;;;;4.10;2.42;;;;;;;12.81;100.00;100281.31;10603316;27;20400;-78
2023/12/22 03:08:03;;;;;;;6.13;2.28;;;;;;;12.75;100.00;100284.88;10601575;28;20584;-78
2023/12/22 03:13:26;;;;;;;4.82;2.10;;;;;;;12.77;100.00;100278.69;10587206;27;20046;-78
2023/12/22 03:18:49;;;;;;;5.38;1.70;;;;;;;12.67;100.00;100271.63;10580991;28;20596;-78
2023/12/22 03:24:11;;;;;;;7.78;5.20;;;;;;;12.49;100.00;100274.28;10567075;28;20039;-78
2023/12/22 03:29:35;;;;;;;4.35;2.30;;;;;;;12.33;100.00;100275.19;10565742;28;20059;-78
2023/12/22 03:34:57;;;;;;;3.30;1.88;;;;;;;12.22;100.00;100259.28;10604008;27;20100;-78
2023/12/22 03:40:20;;;;;;;12.52;7.53;;;;;;;12.21;100.00;100275.16;10609066;27;20476;-78
2023/12/22 03:45:43;;;;;;;38.08;26.33;;;;;;;12.23;100.00;100274.28;10581002;28;20043;-78
2023/12/22 03:51:06;;;;;;;5.47;2.90;;;;;;;12.18;100.00;100281.34;10568153;28;20048;-78
2023/12/22 03:56:28;;;;;;;6.05;2.45;;;;;;;12.39;100.00;100285.78;10567948;27;20062;-78
2023/12/22 04:01:57;;;;;;;4.32;2.17;;;;;;;12.31;100.00;100288.41;10603071;27;20499;-77
2023/12/22 04:07:19;;;;;;;2.78;1.33;;;;;;;12.45;100.00;100295.47;10606610;27;20104;-77
2023/12/22 04:12:41;;;;;;;1.88;1.38;;;;;;;12.48;100.00;100293.69;10606383;27;20039;-77
2023/12/22 04:18:06;;;;;;;1.50;1.30;;;;;;;12.33;100.00;100289.31;10606632;27;20054;-77
2023/12/22 04:23:28;;;;;;;3.58;2.72;;;;;;;12.11;100.00;100295.44;10606387;27;20043;-78
2023/12/22 04:28:51;;;;;;;9.70;6.97;;;;;;;12.04;100.00;100295.41;10605306;27;20055;-78
2023/12/22 04:34:15;;;;;;;5.13;4.03;;;;;;;11.81;100.00;100298.03;10604367;27;20082;-78
2023/12/22 04:39:38;;;;;;;3.00;1.45;;;;;;;12.13;100.00;100301.63;10605823;27;20086;-78
2023/12/22 04:45:00;;;;;;;5.57;1.60;;;;;;;12.27;100.00;100299.00;10575298;28;20059;-77
2023/12/22 04:50:24;;;;;;;3.65;1.30;;;;;;;12.17;100.00;100289.28;10562017;28;20443;-78
2023/12/22 04:55:47;;;;;;;2.90;1.48;;;;;;;12.03;100.00;100296.28;10566009;27;20047;-77
2023/12/22 05:01:09;;;;;;;9.52;5.60;;;;;;;11.97;100.00;100299.81;10619042;27;20051;-77
2023/12/22 05:06:33;;;;;;;9.85;6.60;;;;;;;11.98;100.00;100306.88;10590303;27;20070;-78
2023/12/22 05:11:56;;;;;;;14.52;10.27;;;;;;;11.82;100.00;100313.88;10603597;27;20363;-76
2023/12/22 05:17:18;;;;;;;9.98;5.80;;;;;;;11.74;100.00;100318.28;10602922;27;20044;-76
2023/12/22 05:22:42;;;;;;;10.07;6.57;;;;;;;11.70;100.00;100319.09;10603004;27;20132;-76
2023/12/22 05:28:05;;;;;;;6.57;5.15;;;;;;;11.86;100.00;100298.91;10597402;27;20492;-76
2023/12/22 05:33:27;;;;;;;14.98;8.70;;;;;;;11.92;100.00;100293.63;10601732;27;20523;-77
2023/12/22 05:38:51;;;;;;;26.70;19.65;;;;;;;12.19;100.00;100311.34;10602101;27;20047;-76
2023/12/22 05:44:13;;;;;;;28.95;21.38;;;;;;;12.12;100.00;100318.38;10602525;27;20047;-78
2023/12/22 05:49:35;;;;;;;50.35;37.58;;;;;;;12.26;100.00;100321.94;10601982;27;20054;-77
2023/12/22 05:54:59;;;;;;;15.20;11.13;;;;;;;12.34;100.00;100319.28;10600094;27;20053;-77
2023/12/22 06:00:22;;;;;;;45.92;37.38;;;;;;;12.49;100.00;100327.25;10600671;27;20047;-77
2023/12/22 06:05:44;;;;;;;36.20;30.65;;;;;;;12.65;100.00;100310.50;10599791;27;20046;-79
2023/12/22 06:11:09;;;;;;;61.75;50.00;;;;;;;12.95;100.00;100314.88;10601389;27;20050;-77
2023/12/22 06:16:31;;;;;;;15.98;8.60;;;;;;;12.88;100.00;100306.91;10598191;27;20051;-78
2023/12/22 06:21:54;;;;;;;23.33;16.73;;;;;;;14.24;100.00;100314.38;10579062;27;20040;-79
2023/12/22 06:27:18;;;;;;;19.90;12.65;;;;;;;17.86;100.00;100322.75;10565117;28;20492;-78
2023/12/22 06:32:41;;;;;;;16.73;11.98;;;;;;;20.47;100.00;100313.16;10572499;28;20059;-77
2023/12/22 06:38:05;;;;;;;19.25;15.50;;;;;;;21.55;97.81;100312.13;10585945;28;20051;-76
2023/12/22 06:43:29;;;;;;;21.33;15.40;;;;;;;20.64;99.23;100310.81;10565186;28;20040;-77
2023/12/22 06:48:51;;;;;;;31.05;19.23;;;;;;;20.14;100.00;100299.00;10585592;27;20043;-78
2023/12/22 06:54:14;;;;;;;18.90;13.82;;;;;;;20.85;99.67;100306.53;10596877;27;20087;-77
2023/12/22 06:59:38;;;;;;;9.43;5.53;;;;;;;22.05;85.24;100304.91;10562452;28;20386;-78
2023/12/22 07:05:25;;;;;;;8.40;6.40;;;;;;;23.10;80.55;100305.97;10566659;28;20048;-77
2023/12/22 07:10:47;;;;;;;18.55;16.55;;;;;;;25.53;62.38;100306.84;10566735;28;20060;-78
2023/12/22 07:16:13;;;;;;;16.20;13.32;;;;;;;26.57;56.28;100319.13;10606745;27;20043;-78
2023/12/22 07:21:35;;;;;;;19.40;17.40;;;;;;;26.09;53.23;100315.47;10608318;27;20066;-78
2023/12/22 07:26:58;;;;;;;6.35;5.00;;;;;;;26.04;54.14;100330.22;10608801;27;20072;-78
2023/12/22 07:32:21;;;;;;;6.63;4.50;;;;;;;27.55;48.69;100336.78;10607206;27;20492;-79
2023/12/22 07:37:44;;;;;;;7.90;5.05;;;;;;;27.81;45.09;100323.44;10609078;27;20413;-80
2023/12/22 07:43:06;;;;;;;7.57;4.20;;;;;;;28.46;42.32;100325.53;10608896;27;20545;-79
2023/12/22 07:48:30;;;;;;;3.58;2.70;;;;;;;28.48;41.19;100322.72;10607851;27;20058;-79
2023/12/22 07:53:52;;;;;;;7.22;2.63;;;;;;;28.36;40.65;100329.81;10566309;27;20071;-79
2023/12/22 07:59:15;;;;;;;13.38;7.90;;;;;;;28.87;38.96;100328.28;10601735;27;20095;-80
2023/12/22 08:04:39;;;;;;;6.60;3.38;;;;;;;28.39;38.54;100343.22;10607131;27;20100;-80
2023/12/22 08:10:02;;;;;;;3.20;2.90;;;;;;;28.66;38.22;100332.38;10608008;27;20465;-80
2023/12/22 08:15:24;;;;;;;5.13;1.83;;;;;;;29.08;37.63;100330.53;10569071;27;20040;-80
2023/12/22 08:20:49;;;;;;;3.72;1.92;;;;;;;29.53;36.44;100326.50;10577064;27;20046;-80
2023/12/22 08:26:11;;;;;;;5.13;2.08;;;;;;;30.20;35.65;100325.28;10608785;27;20058;-81
2023/12/22 08:31:34;;;;;;;4.38;2.10;;;;;;;30.41;35.23;100320.13;10606844;27;20039;-81
2023/12/22 08:36:58;;;;;;;8.32;3.55;;;;;;;30.81;34.92;100321.66;10606518;27;20047;-81
2023/12/22 08:42:22;;;;;;;8.75;3.63;;;;;;;31.01;35.18;100305.63;10606772;27;20107;-81
2023/12/22 08:47:44;;;;;;;11.25;6.32;;;;;;;31.01;33.73;100306.50;10606481;27;20077;-81
2023/12/22 08:53:08;;;;;;;4.85;2.80;;;;;;;31.43;33.99;100312.41;10576472;28;20051;-81
2023/12/22 08:58:31;;;;;;;4.03;1.70;;;;;;;31.99;32.51;100299.72;10576648;28;20046;-82
2023/12/22 09:03:56;;;;;;;2.28;1.85;;;;;;;32.62;31.71;100290.00;10577394;28;20085;-81
2023/12/22 09:09:21;;;;;;;5.75;2.53;;;;;;;33.22;31.08;100283.94;10563606;28;20120;-82
2023/12/22 09:14:44;;;;;;;4.53;1.75;;;;;;;33.24;30.93;100268.25;10576127;28;20051;-82
2023/12/22 09:20:08;;;;;;;4.32;2.22;;;;;;;32.09;31.13;100250.66;10548739;28;20048;-81
2023/12/22 09:25:32;;;;;;;8.73;5.85;;;;;;;28.13;33.93;100240.81;10534909;28;20138;-81
2023/12/22 09:30:55;;;;;;;6.32;3.92;;;;;;;29.51;32.21;100222.34;10534075;28;20043;-81
2023/12/22 09:36:18;;;;;;;5.82;3.83;;;;;;;29.66;31.65;100230.28;10519065;28;20112;-80
2023/12/22 09:41:44;;;;;;;21.50;12.73;;;;;;;29.86;32.80;100212.50;10531349;28;20505;-82
2023/12/22 09:47:08;;;;;;;14.70;10.20;;;;;;;28.96;36.25;100199.00;10562180;28;20054;-79
2023/12/22 09:52:35;;;;;;;10.77;4.95;;;;;;;27.38;39.08;100188.63;10546224;28;20075;-80
2023/12/22 09:58:02;;;;;;;11.45;5.80;;;;;;;27.36;38.92;100181.56;10533837;28;20036;-80
2023/12/22 10:03:31;;;;;;;7.72;2.97;;;;;;;26.57;41.87;100189.13;10566446;28;20154;-78
2023/12/22 10:08:55;;;;;;;8.32;5.93;;;;;;;24.76;45.87;100180.28;10572195;28;20192;-80
2023/12/22 10:14:22;;;;;;;5.85;4.20;;;;;;;24.70;48.77;100179.72;10567561;28;20054;-80
2023/12/22 10:19:44;;;;;;;4.55;2.47;;;;;;;28.81;39.18;100186.50;10552834;28;20529;-85
2023/12/22 10:25:11;;;;;;;4.03;2.65;;;;;;;30.49;35.24;100174.19;10573334;28;20051;-84
2023/12/22 10:30:36;;;;;;;2.28;1.67;;;;;;;31.71;33.33;100159.06;10551875;28;20043;-81
2023/12/22 10:36:00;;;;;;;2.67;1.30;;;;;;;31.44;32.28;100156.69;10551348;28;20070;-81
2023/12/22 10:41:23;;;;;;;2.30;1.63;;;;;;;31.16;33.58;100143.56;10565732;28;20058;-80
2023/12/22 10:46:48;;;;;;;3.00;1.52;;;;;;;31.45;33.04;100150.25;10571995;28;20047;-81
2023/12/22 10:52:17;;;;;;;3.45;1.77;;;;;;;31.04;32.50;100145.38;10570154;28;20498;-80
2023/12/22 10:57:41;;;;;;;4.35;1.92;;;;;;;28.90;34.14;100145.06;10569461;28;20054;-81
2023/12/22 11:03:09;;;;;;;2.35;1.20;;;;;;;28.48;34.69;100119.00;10555328;28;20056;-79
2023/12/22 11:08:32;;;;;;;4.82;1.60;;;;;;;28.23;34.77;100108.06;10572246;28;20489;-80
2023/12/22 11:13:57;;;;;;;4.15;2.20;;;;;;;28.88;33.46;100098.13;10554369;28;20509;-81
2023/12/22 11:19:49;;;;;;;2.10;1.58;;;;;;;28.40;34.28;100070.66;10559268;28;20043;-80
2023/12/22 11:25:15;;;;;;;4.55;1.50;;;;;;;27.51;35.81;100049.53;10559156;28;20474;-79
2023/12/22 11:30:48;;;;;;;6.70;1.40;;;;;;;26.65;37.70;100043.28;10572490;28;20104;-79
2023/12/22 11:36:13;;;;;;;9.90;3.17;;;;;;;26.91;37.71;100030.88;10574752;28;20058;-79
2023/12/22 11:41:38;;;;;;;4.85;2.17;;;;;;;26.93;37.59;100029.78;10554096;28;20516;-79
2023/12/22 11:47:07;;;;;;;3.63;2.00;;;;;;;25.76;39.27;100044.19;10580063;28;20070;-79
2023/12/22 11:52:32;;;;;;;3.60;1.73;;;;;;;25.09;41.34;100064.19;10538608;28;20486;-79
2023/12/22 11:57:56;;;;;;;3.95;1.90;;;;;;;24.79;42.65;100060.44;10559543;27;20134;-78
2023/12/22 12:03:19;;;;;;;4.65;1.70;;;;;;;24.71;43.46;100066.25;10566503;27;20043;-79
2023/12/22 12:08:44;;;;;;;7.00;2.08;;;;;;;24.23;44.53;100061.59;10555359;28;20506;-79
2023/12/22 12:14:11;;;;;;;3.00;1.50;;;;;;;23.69;45.66;100060.75;10574099;28;20443;-80
2023/12/22 12:19:35;;;;;;;4.47;2.00;;;;;;;23.61;46.40;100046.78;10575563;28;20054;-78
2023/12/22 12:25:01;;;;;;;6.60;1.90;;;;;;;23.45;47.35;100051.13;10562491;28;20281;-78
2023/12/22 12:30:24;;;;;;;10.07;3.85;;;;;;;23.32;47.94;100050.84;10566623;28;20171;-78
2023/12/22 12:35:48;;;;;;;4.28;1.92;;;;;;;23.41;48.58;100049.53;10573431;28;20085;-83
2023/12/22 12:41:13;;;;;;;12.25;2.75;;;;;;;23.32;48.98;100049.97;10545262;28;20047;-78
2023/12/22 12:46:36;;;;;;;12.07;5.85;;;;;;;23.25;49.54;100051.22;10555288;28;20043;-79
2023/12/22 12:52:01;;;;;;;3.92;2.40;;;;;;;23.21;49.98;100038.84;10533605;28;20052;-79
2023/12/22 12:57:25;;;;;;;12.98;4.68;;;;;;;23.33;50.03;100040.94;10520670;28;20130;-80
2023/12/22 13:02:47;;;;;;;12.65;6.22;;;;;;;23.28;51.16;100043.00;10500545;28;20498;-78
2023/12/22 13:08:12;;;;;;;7.93;4.00;;;;;;;22.85;54.62;100047.69;10534382;28;20462;-79
2023/12/22 13:13:44;;;;;;;4.30;2.45;;;;;;;22.57;54.88;100049.88;10520522;28;20044;-79
2023/12/22 13:19:07;;;;;;;7.05;3.58;;;;;;;22.16;55.74;100049.91;10520356;28;20048;-79
2023/12/22 13:24:30;;;;;;;6.75;2.90;;;;;;;21.82;57.16;100071.03;10533314;28;20639;-79
2023/12/22 13:29:55;;;;;;;8.30;3.55;;;;;;;21.50;63.02;100050.00;10515226;28;20044;-80
2023/12/22 13:35:23;;;;;;;12.25;4.75;;;;;;;21.15;68.45;100062.09;10521186;28;20502;-80
2023/12/22 13:40:46;;;;;;;4.50;1.77;;;;;;;20.81;72.08;100067.88;10513562;28;20367;-79
2023/12/22 13:46:11;;;;;;;4.95;1.58;;;;;;;20.46;79.53;100050.41;10491505;28;20105;-80
2023/12/22 13:51:41;;;;;;;5.30;1.85;;;;;;;20.25;84.68;100033.25;10571547;27;20051;-78
2023/12/22 13:57:03;;;;;;;5.53;1.95;;;;;;;20.10;88.75;100034.66;10594795;27;20097;-78
2023/12/22 14:02:27;;;;;;;5.30;2.05;;;;;;;19.84;93.98;100046.28;10584176;27;20846;-77
2023/12/22 14:07:52;;;;;;;4.97;1.92;;;;;;;19.76;95.70;100051.03;10593222;27;20673;-77
2023/12/22 14:13:18;;;;;;;9.98;2.80;;;;;;;19.51;98.05;100042.06;10609402;27;20051;-83
2023/12/22 14:18:42;;;;;;;5.55;2.33;;;;;;;19.33;97.92;100046.16;10581937;27;20031;-78
2023/12/22 14:24:04;;;;;;;3.38;1.70;;;;;;;19.34;98.65;100047.03;10600045;28;20047;-79
2023/12/22 14:29:27;;;;;;;5.72;2.88;;;;;;;19.32;100.00;100051.56;10585819;28;20059;-78
2023/12/22 14:34:51;;;;;;;11.25;6.47;;;;;;;19.23;100.00;100050.03;10564617;28;20548;-79
2023/12/22 14:40:14;;;;;;;17.90;11.25;;;;;;;19.04;100.00;100047.06;10581662;28;20051;-79
2023/12/22 14:45:37;;;;;;;9.18;3.80;;;;;;;18.81;100.00;100041.53;10559624;28;20101;-78
2023/12/22 14:51:01;;;;;;;3.97;3.05;;;;;;;18.52;100.00;100042.34;10568731;28;20451;-78
2023/12/22 14:56:23;;;;;;;11.20;6.25;;;;;;;18.32;100.00;100042.91;10599115;27;20039;-78
2023/12/22 15:01:46;;;;;;;27.38;22.05;;;;;;;18.11;100.00;100054.19;10599289;27;20035;-79
2023/12/22 15:07:10;;;;;;;8.95;4.28;;;;;;;17.73;100.00;100043.59;10568686;28;20051;-78
2023/12/22 15:12:36;;;;;;;5.85;3.00;;;;;;;17.20;100.00;100032.38;10595184;27;20035;-80
2023/12/22 15:17:58;;;;;;;4.60;2.80;;;;;;;16.84;100.00;100025.22;10606603;27;20134;-77
2023/12/22 15:23:22;;;;;;;6.40;2.92;;;;;;;16.53;100.00;100028.53;10587479;27;20074;-78
2023/12/22 15:28:45;;;;;;;5.82;3.30;;;;;;;16.38;100.00;100031.50;10600956;27;20100;-76
2023/12/22 15:34:07;;;;;;;10.30;6.75;;;;;;;16.47;100.00;100027.78;10599083;27;20047;-78
2023/12/22 15:39:31;;;;;;;27.50;13.07;;;;;;;16.42;100.00;100024.31;10592679;27;20047;-75
2023/12/22 15:44:54;;;;;;;20.90;11.77;;;;;;;16.18;100.00;100020.34;10590302;27;20055;-78
2023/12/22 15:50:16;;;;;;;19.42;10.82;;;;;;;15.99;100.00;100030.47;10599702;27;20526;-78
2023/12/22 15:55:40;;;;;;;33.47;26.88;;;;;;;15.97;100.00;100028.72;10601746;27;20078;-78
2023/12/22 16:01:03;;;;;;;18.63;12.10;;;;;;;16.16;100.00;100035.47;10614500;27;20096;-79
2023/12/22 16:06:25;;;;;;;35.53;31.20;;;;;;;16.51;100.00;100051.66;10604770;27;20051;-77
2023/12/22 16:11:50;;;;;;;21.17;11.85;;;;;;;16.56;100.00;100056.88;10586313;27;20047;-77
2023/12/22 16:17:12;;;;;;;7.97;4.93;;;;;;;16.59;100.00;100063.03;10598274;27;20043;-77
2023/12/22 16:22:35;;;;;;;10.32;8.07;;;;;;;16.76;100.00;100077.81;10580494;27;20509;-78
2023/12/22 16:28:00;;;;;;;9.43;6.07;;;;;;;16.83;100.00;100069.66;10584350;27;20047;-79
2023/12/22 16:33:23;;;;;;;8.25;5.28;;;;;;;16.85;100.00;100059.88;10589718;27;20051;-79
2023/12/22 16:38:45;;;;;;;6.00;3.08;;;;;;;16.66;100.00;100079.81;10603349;27;20096;-76
2023/12/22 16:44:09;;;;;;;8.73;6.60;;;;;;;16.67;100.00;100084.25;10602766;27;20046;-76
2023/12/22 16:49:31;;;;;;;9.73;4.80;;;;;;;16.63;100.00;100104.72;10580569;27;20043;-78
2023/12/22 16:54:56;;;;;;;10.63;6.72;;;;;;;16.55;100.00;100089.75;10580766;27;20053;-76
2023/12/22 17:00:23;;;;;;;10.30;7.15;;;;;;;16.36;100.00;100091.91;10579239;27;20308;-77
2023/12/22 17:05:45;;;;;;;24.55;14.55;;;;;;;16.24;100.00;100102.78;10583975;27;20036;-77
2023/12/22 17:11:08;;;;;;;12.10;7.95;;;;;;;15.87;100.00;100100.78;10599578;27;20043;-82
2023/12/22 17:16:34;;;;;;;20.45;12.32;;;;;;;15.58;100.00;100128.72;10583704;27;20062;-77
2023/12/22 17:21:57;;;;;;;19.02;11.75;;;;;;;15.50;100.00;100144.75;10577592;27;20043;-78
2023/12/22 17:27:19;;;;;;;11.68;6.93;;;;;;;15.34;100.00;100140.59;10591299;27;20530;-76
2023/12/22 17:32:43;;;;;;;15.63;8.82;;;;;;;15.20;100.00;100151.41;10588751;27;20035;-77
2023/12/22 17:38:05;;;;;;;9.20;7.03;;;;;;;14.92;100.00;100144.66;10588790;27;20039;-78
2023/12/22 17:43:28;;;;;;;19.75;12.57;;;;;;;14.80;100.00;100147.47;10602183;27;20047;-76
2023/12/22 17:48:52;;;;;;;12.48;6.38;;;;;;;14.54;100.00;100145.97;10595165;27;20035;-75
2023/12/22 17:54:14;;;;;;;21.63;12.90;;;;;;;14.42;100.00;100159.41;10593749;27;20108;-77
2023/12/22 17:59:39;;;;;;;15.55;11.30;;;;;;;14.27;100.00;100171.00;10612298;27;20442;-78
2023/12/22 18:05:04;;;;;;;11.75;7.07;;;;;;;14.27;100.00;100173.66;10585558;27;20401;-77
2023/12/22 18:10:26;;;;;;;14.38;8.27;;;;;;;14.52;100.00;100184.06;10592615;27;20051;-77
2023/12/22 18:15:48;;;;;;;13.48;6.70;;;;;;;14.49;100.00;100168.19;10583766;27;20622;-77
2023/12/22 18:21:13;;;;;;;11.23;8.63;;;;;;;14.27;100.00;100175.44;10590081;27;20055;-77
2023/12/22 18:26:36;;;;;;;26.58;19.42;;;;;;;14.27;100.00;100176.31;10586614;27;20469;-78
2023/12/22 18:31:58;;;;;;;49.22;27.30;;;;;;;14.25;100.00;100174.53;10590480;28;20088;-77
2023/12/22 18:37:22;;;;;;;18.52;14.10;;;;;;;14.11;100.00;100193.25;10580374;27;20047;-77
2023/12/22 18:42:45;;;;;;;38.05;26.17;;;;;;;14.10;100.00;100204.78;10576003;27;20431;-76
2023/12/22 18:48:08;;;;;;;24.50;16.15;;;;;;;13.96;100.00;100190.72;10586806;27;20050;-77
2023/12/22 18:53:32;;;;;;;26.92;14.48;;;;;;;13.76;100.00;100196.19;10590755;27;20403;-80
2023/12/22 18:58:56;;;;;;;24.27;14.13;;;;;;;13.78;100.00;100194.41;10571983;27;20051;-80
2023/12/22 19:04:19;;;;;;;24.38;12.25;;;;;;;13.71;100.00;100194.44;10605734;27;20047;-77
2023/12/22 19:09:45;;;;;;;10.75;6.57;;;;;;;13.54;100.00;100195.41;10598812;27;20543;-77
2023/12/22 19:15:09;;;;;;;11.48;7.85;;;;;;;13.39;100.00;100192.84;10578600;27;20050;-78
2023/12/22 19:20:32;;;;;;;73.05;56.75;;;;;;;13.54;100.00;100211.31;10585228;27;20047;-78
2023/12/22 19:25:56;;;;;;;13.52;6.90;;;;;;;13.31;100.00;100202.63;10596436;27;20046;-77
2023/12/22 19:31:19;;;;;;;7.32;4.20;;;;;;;13.15;100.00;100212.41;10599946;27;20097;-79
2023/12/22 19:36:42;;;;;;;9.90;4.85;;;;;;;13.42;100.00;100200.78;10573495;27;20047;-78
2023/12/22 19:42:07;;;;;;;7.70;3.88;;;;;;;13.74;100.00;100199.72;10582742;27;20320;-81
2023/12/22 19:47:30;;;;;;;5.72;3.95;;;;;;;13.70;100.00;100195.34;10589243;27;20047;-81
2023/12/22 19:52:52;;;;;;;22.90;12.40;;;;;;;13.49;100.00;100191.03;10581568;27;20043;-79
2023/12/22 19:58:17;;;;;;;10.15;4.53;;;;;;;13.53;100.00;100198.06;10585012;27;20079;-80
2023/12/22 20:03:43;;;;;;;6.15;3.50;;;;;;;13.49;100.00;100189.25;10570010;27;20051;-79
2023/12/22 20:09:08;;;;;;;7.85;3.20;;;;;;;13.65;100.00;100173.28;10577778;27;20138;-81
2023/12/22 20:14:32;;;;;;;7.60;4.50;;;;;;;13.79;100.00;100197.91;10551621;28;20039;-81
2023/12/22 20:19:54;;;;;;;28.70;17.42;;;;;;;13.76;100.00;100197.94;10578622;27;20104;-80
2023/12/22 20:25:18;;;;;;;16.02;8.30;;;;;;;13.65;100.00;100194.50;10590088;27;20039;-80
2023/12/22 20:30:43;;;;;;;14.23;9.23;;;;;;;13.40;100.00;100189.31;10604221;27;20047;-79
2023/12/22 20:36:06;;;;;;;15.52;9.60;;;;;;;13.57;100.00;100202.47;10552169;28;20047;-78
2023/12/22 20:41:29;;;;;;;6.55;3.58;;;;;;;13.65;100.00;100184.75;10563036;28;20063;-78
2023/12/22 20:46:53;;;;;;;23.52;13.63;;;;;;;13.76;100.00;100182.91;10562824;27;20056;-78
2023/12/22 20:52:16;;;;;;;61.05;36.47;;;;;;;13.57;100.00;100199.84;10590616;27;20369;-78
2023/12/22 20:57:39;;;;;;;24.83;12.93;;;;;;;13.48;100.00;100199.88;10586481;27;20097;-78
2023/12/22 21:03:03;;;;;;;14.85;10.48;;;;;;;13.46;100.00;100199.88;10587090;27;20468;-78
2023/12/22 21:08:25;;;;;;;9.48;4.38;;;;;;;13.33;100.00;100192.88;10560770;27;20125;-78
2023/12/22 21:13:48;;;;;;;9.02;4.63;;;;;;;13.34;100.00;100199.94;10564692;27;20051;-78
2023/12/22 21:19:12;;;;;;;23.42;12.88;;;;;;;13.55;100.00;100217.50;10604205;27;20533;-78
2023/12/22 21:24:35;;;;;;;15.30;7.47;;;;;;;13.57;100.00;100213.97;10586145;27;20103;-78
2023/12/22 21:29:58;;;;;;;11.32;5.80;;;;;;;13.63;100.00;100209.53;10602847;27;20046;-78
2023/12/22 21:35:22;;;;;;;17.38;9.60;;;;;;;13.80;100.00;100210.28;10588355;27;20043;-78
2023/12/22 21:40:45;;;;;;;7.70;3.85;;;;;;;14.08;100.00;100214.53;10602215;27;20390;-79
2023/12/22 21:46:07;;;;;;;4.75;3.15;;;;;;;14.20;100.00;100230.34;10599104;27;20051;-77
2023/12/22 21:51:31;;;;;;;9.73;3.47;;;;;;;14.27;100.00;100228.53;10595849;27;20055;-78
2023/12/22 21:56:55;;;;;;;10.75;3.78;;;;;;;14.49;100.00;100229.25;10592466;27;20071;-78
2023/12/22 22:02:17;;;;;;;5.07;2.17;;;;;;;14.71;100.00;100233.47;10559762;27;20051;-78
2023/12/22 22:07:41;;;;;;;7.90;4.03;;;;;;;14.99;100.00;100239.38;10559480;28;20093;-78
2023/12/22 22:13:04;;;;;;;20.50;11.30;;;;;;;15.12;100.00;100257.84;10577409;27;20047;-79
2023/12/22 22:18:27;;;;;;;5.85;2.65;;;;;;;15.10;100.00;100242.78;10602589;27;20043;-78
2023/12/22 22:23:53;;;;;;;11.82;3.72;;;;;;;15.33;100.00;100215.94;10577677;27;20044;-79
2023/12/22 22:29:16;;;;;;;15.50;6.25;;;;;;;15.66;100.00;100238.59;10581605;28;20139;-79
2023/12/22 22:34:40;;;;;;;9.45;3.45;;;;;;;15.74;100.00;100242.03;10600654;28;20040;-79
2023/12/22 22:40:05;;;;;;;10.18;2.95;;;;;;;16.05;100.00;100223.84;10600846;28;20053;-78
2023/12/22 22:45:28;;;;;;;7.93;2.40;;;;;;;16.22;100.00;100251.06;10591733;28;20167;-78
2023/12/22 22:50:50;;;;;;;6.70;2.05;;;;;;;16.29;100.00;100250.06;10583284;28;20088;-78
2023/12/22 22:56:14;;;;;;;11.80;3.45;;;;;;;16.48;100.00;100254.19;10600351;28;20057;-78
2023/12/22 23:01:36;;;;;;;11.57;3.97;;;;;;;16.47;100.00;100265.78;10602105;28;20051;-78
2023/12/22 23:06:59;;;;;;;12.43;3.63;;;;;;;16.40;100.00;100261.44;10601658;28;20484;-79
2023/12/22 23:12:23;;;;;;;6.82;2.58;;;;;;;16.37;100.00;100257.94;10601491;28;20047;-80
2023/12/22 23:17:45;;;;;;;11.57;3.08;;;;;;;16.56;100.00;100254.06;10584433;28;20058;-79
2023/12/22 23:23:09;;;;;;;11.52;2.75;;;;;;;16.48;100.00;100269.28;10571711;28;20067;-80
2023/12/22 23:28:33;;;;;;;11.05;5.00;;;;;;;16.57;100.00;100270.03;10559762;28;20052;-80
2023/12/22 23:33:55;;;;;;;8.63;3.05;;;;;;;16.56;100.00;100294.03;10564269;28;20044;-80
2023/12/22 23:39:18;;;;;;;9.98;3.92;;;;;;;16.74;100.00;100299.97;10594433;27;20043;-83
2023/12/22 23:44:43;;;;;;;6.90;2.92;;;;;;;16.90;100.00;100305.94;10592782;27;20044;-79
2023/12/22 23:50:06;;;;;;;10.38;3.45;;;;;;;16.85;100.00;100331.78;10566170;28;20131;-80
2023/12/22 23:55:29;;;;;;;9.93;3.15;;;;;;;16.86;100.00;100319.34;10551954;28;20048;-79
